Time;durP1;ratioP1;P1;durP2;ratioP2;P2;SDS_P1;SDS_P2;PMS_P1;PMS_P2;Temp;Humidity;BMP_temperature;BMP_pressure;BME280_temperature;BME280_humidity;BME280_pressure;Samples;Min_cycle;Max_cycle;Signal;HPM_P1;HPM_P2
2023/04/02 00:02:19;;;;;;;4.95;1.60;;;;;;;9.88;67.17;98985.00;10289089;28;20174;-59
2023/04/02 00:07:32;;;;;;;2.67;1.60;;;;;;;9.96;67.03;98992.28;10286498;28;20046;-59
2023/04/02 00:12:34;;;;;;;3.33;1.77;;;;;;;9.81;67.10;98996.00;10256129;28;20046;-59
2023/04/02 00:17:35;;;;;;;3.58;1.70;;;;;;;9.76;67.63;99006.75;10253845;28;20610;-59
2023/04/02 00:22:43;;;;;;;3.83;1.80;;;;;;;9.76;67.58;99006.75;10255723;28;20150;-59
2023/04/02 00:27:45;;;;;;;3.50;1.73;;;;;;;9.82;67.22;99005.47;10263388;28;20042;-59
2023/04/02 00:32:47;;;;;;;3.85;1.80;;;;;;;9.81;66.93;99022.13;10290883;28;20053;-59
2023/04/02 00:37:50;;;;;;;2.63;1.70;;;;;;;9.68;67.22;99021.28;10260372;28;20511;-60
2023/04/02 00:42:58;;;;;;;5.90;2.03;;;;;;;9.60;67.65;99016.59;10261318;28;20065;-59
2023/04/02 00:48:30;;;;;;;3.03;1.90;;;;;;;9.58;66.99;99024.50;10261764;28;20480;-60
2023/04/02 00:53:33;;;;;;;3.20;2.20;;;;;;;9.47;66.91;99037.50;10259516;28;20499;-60
2023/04/02 00:58:36;;;;;;;4.93;1.98;;;;;;;9.25;67.22;99046.88;10277219;28;20515;-60
2023/04/02 01:03:39;;;;;;;8.85;2.30;;;;;;;9.11;67.67;99055.66;10245574;28;20039;-60
2023/04/02 01:08:47;;;;;;;4.18;2.58;;;;;;;9.13;67.62;99059.00;10261816;28;20065;-60
2023/04/02 01:14:05;;;;;;;5.82;2.70;;;;;;;9.17;67.87;99063.06;10255038;28;20039;-60
2023/04/02 01:19:26;;;;;;;6.28;3.83;;;;;;;9.24;67.64;99066.91;10257473;28;20050;-60
2023/04/02 01:24:33;;;;;;;7.93;3.47;;;;;;;9.27;67.85;99074.56;10273580;28;20165;-60
2023/04/02 01:29:41;;;;;;;7.72;3.70;;;;;;;9.16;67.62;99074.44;10258643;28;20043;-60
2023/04/02 01:34:46;;;;;;;6.53;3.17;;;;;;;9.03;67.94;99076.22;10260992;28;20065;-60
2023/04/02 01:40:13;;;;;;;8.50;3.85;;;;;;;8.88;68.42;99082.44;10256505;28;20042;-60
2023/04/02 01:45:18;;;;;;;6.15;3.72;;;;;;;9.08;68.54;99081.09;10256867;28;20309;-60
2023/04/02 01:50:23;;;;;;;5.43;4.18;;;;;;;9.22;67.82;99094.88;10286961;28;20125;-60
2023/04/02 01:55:30;;;;;;;7.70;5.78;;;;;;;9.27;68.03;99105.03;10289266;28;21189;-60
2023/04/02 02:00:36;;;;;;;14.45;10.02;;;;;;;9.36;67.95;99109.63;10290420;28;20097;-60
2023/04/02 02:05:39;;;;;;;17.00;9.10;;;;;;;9.43;67.80;99113.47;10263096;28;20094;-60
2023/04/02 02:10:40;;;;;;;15.43;9.77;;;;;;;9.48;67.59;99117.44;10276867;28;20403;-60
2023/04/02 02:15:43;;;;;;;12.20;8.90;;;;;;;9.52;67.56;99120.69;10263132;28;20051;-60
2023/04/02 02:20:46;;;;;;;8.35;6.05;;;;;;;9.31;67.68;99130.81;10296507;28;20149;-60
2023/04/02 02:25:48;;;;;;;13.20;6.55;;;;;;;9.14;68.13;99138.06;10264779;28;20318;-60
2023/04/02 02:30:57;;;;;;;85.95;6.38;;;;;;;8.97;68.83;99151.41;10265328;28;20043;-60
2023/04/02 02:36:23;;;;;;;281.90;10.80;;;;;;;8.84;69.40;99156.56;10295635;28;20486;-60
2023/04/02 02:41:33;;;;;;;117.80;7.65;;;;;;;8.92;69.25;99167.34;10294157;28;20061;-60
2023/04/02 02:46:42;;;;;;;57.40;7.43;;;;;;;9.04;68.96;99169.16;10264380;28;20059;-60
2023/04/02 02:51:48;;;;;;;27.83;7.13;;;;;;;9.16;68.68;99183.16;10294715;28;20522;-60
2023/04/02 02:57:02;;;;;;;11.18;6.38;;;;;;;9.16;68.37;99196.19;10295448;28;20310;-60
2023/04/02 03:02:08;;;;;;;10.32;6.07;;;;;;;9.23;68.46;99195.72;10264353;28;20047;-60
2023/04/02 03:07:10;;;;;;;16.33;7.07;;;;;;;9.30;68.34;99203.97;10259796;28;20048;-60
2023/04/02 03:12:18;;;;;;;17.45;9.02;;;;;;;9.39;68.20;99214.63;10257728;28;21043;-60
2023/04/02 03:17:44;;;;;;;18.88;6.88;;;;;;;9.31;68.16;99214.31;10291312;28;20054;-60
2023/04/02 03:23:16;;;;;;;15.10;7.90;;;;;;;9.14;68.30;99225.00;10289572;28;20141;-60
2023/04/02 03:28:26;;;;;;;15.88;8.10;;;;;;;9.21;68.18;99234.13;10258231;28;20039;-60
2023/04/02 03:33:34;;;;;;;12.50;7.30;;;;;;;9.15;68.17;99242.34;10272916;28;20042;-60
2023/04/02 03:39:17;;;;;;;14.70;8.00;;;;;;;9.03;68.18;99256.16;10289017;28;20483;-60
2023/04/02 03:44:43;;;;;;;11.70;7.05;;;;;;;9.10;68.41;99260.03;10253791;28;20051;-60
2023/04/02 03:49:48;;;;;;;16.25;8.40;;;;;;;9.19;68.26;99267.28;10272928;28;20082;-60
2023/04/02 03:54:50;;;;;;;11.32;6.35;;;;;;;9.24;68.21;99272.22;10259189;28;20047;-60
2023/04/02 04:00:15;;;;;;;19.13;7.95;;;;;;;9.27;67.99;99279.84;10295119;28;20046;-60
2023/04/02 04:05:38;;;;;;;11.23;8.48;;;;;;;9.34;67.82;99283.72;10276465;28;20059;-60
2023/04/02 04:10:42;;;;;;;468.83;17.35;;;;;;;9.38;67.88;99291.25;10280317;28;20038;-60
2023/04/02 04:15:44;;;;;;;68.40;11.65;;;;;;;9.29;68.00;99301.44;10266640;28;20075;-60
2023/04/02 04:20:55;;;;;;;241.60;13.95;;;;;;;9.23;68.06;99315.72;10264701;28;20407;-60
2023/04/02 04:26:11;;;;;;;18.85;7.47;;;;;;;9.25;68.35;99323.44;10265648;28;20051;-60
2023/04/02 04:31:33;;;;;;;22.83;8.20;;;;;;;9.18;68.02;99330.81;10262970;28;20057;-60
2023/04/02 04:37:00;;;;;;;15.07;8.55;;;;;;;9.20;68.43;99336.78;10300957;28;20061;-60
2023/04/02 04:42:11;;;;;;;14.23;7.07;;;;;;;9.35;68.04;99342.81;10292811;28;20420;-60
2023/04/02 04:47:21;;;;;;;14.75;6.88;;;;;;;9.39;68.02;99362.53;10261967;28;20557;-60
2023/04/02 04:52:31;;;;;;;11.10;7.30;;;;;;;9.41;67.96;99366.75;10261040;28;20058;-60
2023/04/02 04:57:36;;;;;;;10.00;6.07;;;;;;;9.17;68.12;99383.09;10263008;28;20478;-60
2023/04/02 05:03:02;;;;;;;21.10;8.57;;;;;;;8.95;68.95;99388.84;10264440;28;20051;-60
2023/04/02 05:08:21;;;;;;;10.43;6.82;;;;;;;8.74;69.48;99408.38;10291350;28;20490;-60
2023/04/02 05:13:32;;;;;;;8.77;5.72;;;;;;;8.55;69.87;99413.00;10274627;28;20511;-60
2023/04/02 05:18:57;;;;;;;6.13;3.28;;;;;;;8.36;70.14;99422.84;10260469;28;20395;-60
2023/04/02 05:24:27;;;;;;;2.88;1.40;;;;;;;8.01;70.78;99425.72;10263042;28;20380;-60
2023/04/02 05:29:37;;;;;;;1.80;1.13;;;;;;;8.00;70.55;99449.22;10259229;28;20038;-60
2023/04/02 05:34:41;;;;;;;1.73;1.37;;;;;;;7.89;70.62;99462.03;10293648;28;20054;-61
2023/04/02 05:39:45;;;;;;;2.20;1.10;;;;;;;7.91;70.56;99468.81;10261370;28;20058;-60
2023/04/02 05:45:19;;;;;;;1.23;1.00;;;;;;;7.87;70.30;99484.69;10262707;28;20697;-60
2023/04/02 05:50:45;;;;;;;1.05;0.90;;;;;;;7.90;69.99;99494.94;10293416;28;20101;-60
2023/04/02 05:56:18;;;;;;;1.95;1.10;;;;;;;7.81;69.87;99504.06;10276566;28;20125;-60
2023/04/02 06:01:32;;;;;;;4.17;1.10;;;;;;;7.84;69.63;99510.88;10259189;28;20129;-60
2023/04/02 06:06:42;;;;;;;2.75;1.00;;;;;;;7.89;69.66;99514.09;10290862;28;20150;-60
2023/04/02 06:11:56;;;;;;;1.50;1.00;;;;;;;7.66;69.10;99543.97;10288715;28;20051;-60
2023/04/02 06:16:59;;;;;;;1.27;1.05;;;;;;;7.74;69.12;99553.97;10259512;28;20394;-60
2023/04/02 06:22:16;;;;;;;1.10;1.00;;;;;;;7.62;68.32;99565.88;10265533;28;20503;-60
2023/04/02 06:27:23;;;;;;;1.15;1.00;;;;;;;7.77;68.79;99578.06;10291895;28;20043;-60
2023/04/02 06:32:26;;;;;;;1.23;1.00;;;;;;;7.57;68.34;99590.47;10274209;28;20046;-61
2023/04/02 06:37:39;;;;;;;2.20;1.10;;;;;;;7.75;69.01;99605.13;10257825;28;20200;-58
2023/04/02 06:42:58;;;;;;;0.93;0.88;;;;;;;7.85;68.09;99616.72;10293970;28;20157;-59
2023/04/02 06:48:16;;;;;;;1.30;1.00;;;;;;;7.67;66.54;99630.72;10288602;28;20055;-59
2023/04/02 06:53:26;;;;;;;0.80;0.80;;;;;;;7.49;67.57;99645.50;10291286;28;20050;-60
2023/04/02 06:58:29;;;;;;;1.05;0.98;;;;;;;7.55;67.67;99655.59;10288489;28;20348;-60
2023/04/02 07:03:33;;;;;;;1.02;0.93;;;;;;;7.50;67.13;99662.81;10293257;28;20078;-60
2023/04/02 07:08:42;;;;;;;0.80;0.80;;;;;;;7.62;66.96;99677.78;10260698;28;20071;-61
2023/04/02 07:13:45;;;;;;;0.85;0.82;;;;;;;7.18;66.74;99687.00;10260625;28;20062;-61
2023/04/02 07:18:47;;;;;;;1.15;0.90;;;;;;;7.51;66.52;99700.91;10274188;28;20057;-61
2023/04/02 07:23:50;;;;;;;1.17;0.90;;;;;;;7.38;66.36;99712.88;10259820;28;20046;-60
2023/04/02 07:28:53;;;;;;;1.58;1.00;;;;;;;7.47;66.04;99719.38;10256758;28;20514;-60
2023/04/02 07:33:58;;;;;;;1.00;1.00;;;;;;;7.25;65.68;99747.34;10292548;28;20047;-60
2023/04/02 07:39:00;;;;;;;1.58;1.00;;;;;;;7.24;65.60;99743.94;10259096;28;20117;-61
2023/04/02 07:44:03;;;;;;;1.70;1.13;;;;;;;7.10;65.26;99764.56;10265647;28;20082;-61
2023/04/02 07:49:05;;;;;;;1.13;1.00;;;;;;;6.94;65.83;99771.38;10264514;28;20054;-60
2023/04/02 07:54:09;;;;;;;1.05;0.95;;;;;;;7.00;66.31;99784.09;10267064;28;20062;-60
2023/04/02 07:59:10;;;;;;;3.50;0.90;;;;;;;7.30;66.23;99802.59;10261655;28;20047;-61
2023/04/02 08:04:20;;;;;;;1.10;1.00;;;;;;;7.56;65.18;99807.38;10268339;28;20985;-60
2023/04/02 08:09:22;;;;;;;2.83;1.10;;;;;;;7.70;64.42;99818.78;10262932;28;20416;-61
2023/04/02 08:14:25;;;;;;;1.10;1.00;;;;;;;7.53;65.25;99826.56;10267392;28;20544;-61
2023/04/02 08:19:27;;;;;;;0.90;0.90;;;;;;;7.69;64.81;99839.69;10276797;28;20038;-60
2023/04/02 08:24:28;;;;;;;1.02;1.00;;;;;;;7.41;64.23;99849.75;10274136;28;20050;-61
2023/04/02 08:29:31;;;;;;;1.83;1.05;;;;;;;6.99;64.28;99855.22;10261731;28;20058;-61
2023/04/02 08:34:33;;;;;;;1.10;1.00;;;;;;;7.07;64.52;99873.91;10265546;28;20529;-61
2023/04/02 08:39:34;;;;;;;2.15;1.30;;;;;;;6.97;64.57;99886.50;10255645;28;20053;-60
2023/04/02 08:44:50;;;;;;;2.00;1.13;;;;;;;6.95;63.28;99916.06;10260709;28;20046;-61
2023/04/02 08:49:57;;;;;;;1.45;1.10;;;;;;;6.94;64.32;99916.97;10252552;28;20500;-60
2023/04/02 08:55:01;;;;;;;1.58;1.20;;;;;;;6.74;64.70;99930.03;10260279;28;20105;-61
2023/04/02 09:00:15;;;;;;;1.52;1.20;;;;;;;7.10;63.23;99933.59;10254419;28;20426;-61
2023/04/02 09:05:27;;;;;;;2.55;1.40;;;;;;;7.23;63.76;99946.84;10275715;28;20503;-61
2023/04/02 09:10:53;;;;;;;1.48;1.20;;;;;;;6.88;62.47;99969.25;10251621;28;20057;-60
2023/04/02 09:16:05;;;;;;;1.52;1.30;;;;;;;6.92;63.59;99971.66;10264213;28;20146;-61
2023/04/02 09:21:20;;;;;;;1.52;1.20;;;;;;;7.30;62.81;99976.91;10261990;28;20097;-61
2023/04/02 09:26:26;;;;;;;1.80;1.23;;;;;;;7.24;62.59;99990.19;10259827;28;20427;-61
2023/04/02 09:31:40;;;;;;;2.45;1.50;;;;;;;7.07;64.23;100003.94;10272851;28;20399;-60
2023/04/02 09:36:42;;;;;;;3.83;1.60;;;;;;;7.06;64.37;100010.88;10249962;28;20433;-60
2023/04/02 09:41:45;;;;;;;1.90;1.40;;;;;;;6.90;64.17;100027.22;10256586;28;20051;-60
2023/04/02 09:47:22;;;;;;;3.10;1.70;;;;;;;7.00;64.06;100025.91;10253334;28;20407;-60
2023/04/02 09:52:28;;;;;;;2.43;1.53;;;;;;;7.00;63.41;100038.91;10254547;28;20074;-61
2023/04/02 09:57:32;;;;;;;3.40;1.80;;;;;;;7.14;63.06;100046.97;10249146;28;20561;-60
2023/04/02 10:02:34;;;;;;;2.10;1.50;;;;;;;7.13;62.51;100053.06;10256331;28;20123;-61
2023/04/02 10:07:42;;;;;;;2.88;1.80;;;;;;;7.51;62.94;100060.00;10255073;28;20042;-60
2023/04/02 10:12:48;;;;;;;2.22;1.60;;;;;;;7.39;61.93;100068.38;10258091;28;20114;-61
2023/04/02 10:18:05;;;;;;;2.42;1.70;;;;;;;7.10;61.20;100077.44;10262698;28;20782;-60
2023/04/02 10:23:15;;;;;;;3.40;2.00;;;;;;;6.59;61.63;100110.00;10257938;28;20054;-60
2023/04/02 10:28:44;;;;;;;3.22;2.00;;;;;;;6.20;61.10;100117.59;10257886;28;20049;-60
2023/04/02 10:34:08;;;;;;;6.05;2.17;;;;;;;6.49;60.52;100132.06;10257388;28;20561;-61
2023/04/02 10:39:33;;;;;;;2.85;1.85;;;;;;;6.65;60.59;100123.59;10255132;28;20054;-61
2023/04/02 10:44:50;;;;;;;3.55;1.90;;;;;;;6.59;60.44;100128.19;10259461;28;20047;-61
2023/04/02 10:50:17;;;;;;;3.40;1.90;;;;;;;6.88;59.48;100135.63;10276621;28;20055;-60
2023/04/02 10:55:27;;;;;;;3.25;1.90;;;;;;;7.14;59.69;100135.41;10259004;28;20058;-60
2023/04/02 11:00:33;;;;;;;4.43;1.90;;;;;;;6.90;59.52;100152.00;10259494;28;20061;-60
2023/04/02 11:05:45;;;;;;;2.95;1.90;;;;;;;7.08;59.29;100161.66;10258096;28;20134;-60
2023/04/02 11:10:52;;;;;;;2.97;1.85;;;;;;;7.16;58.77;100175.19;10254603;28;20050;-60
2023/04/02 11:15:54;;;;;;;3.17;2.05;;;;;;;7.11;59.41;100177.97;10257809;28;20051;-60
2023/04/02 11:20:58;;;;;;;3.75;2.00;;;;;;;7.16;58.83;100186.41;10255338;28;20134;-60
2023/04/02 11:26:46;;;;;;;3.30;2.13;;;;;;;7.17;58.85;100202.88;10269233;28;20495;-60
2023/04/02 11:31:50;;;;;;;4.00;2.20;;;;;;;7.17;58.11;100198.53;10254695;28;20174;-60
2023/04/02 11:36:52;;;;;;;3.20;2.10;;;;;;;7.30;58.63;100217.09;10258114;28;20043;-60
2023/04/02 11:42:03;;;;;;;5.20;2.40;;;;;;;6.84;58.97;100231.09;10255223;28;20057;-60
2023/04/02 11:47:14;;;;;;;;;;;;;;;6.65;59.38;100226.69;10256630;28;20043;-60
2023/04/02 11:52:24;;;;;;;4.77;2.00;;;;;;;7.20;58.66;100237.41;10254666;28;19930;-60
2023/04/02 11:57:41;;;;;;;3.37;2.20;;;;;;;7.24;58.68;100240.75;10254964;28;20440;-60
2023/04/02 12:03:15;;;;;;;3.40;2.00;;;;;;;7.51;56.85;100247.38;10256224;28;20576;-60
2023/04/02 12:09:07;;;;;;;2.85;1.98;;;;;;;7.19;57.13;100251.34;10254730;28;20086;-60
2023/04/02 12:14:45;;;;;;;3.55;2.15;;;;;;;6.92;57.40;100267.19;10261799;28;20043;-60
2023/04/02 12:19:49;;;;;;;3.70;2.40;;;;;;;7.31;58.37;100267.34;10258403;28;20217;-60
2023/04/02 12:24:55;;;;;;;4.20;2.35;;;;;;;7.17;57.73;100271.38;10257395;28;20082;-60
2023/04/02 12:30:20;;;;;;;3.38;2.17;;;;;;;6.77;57.94;100292.06;10261451;28;20533;-60
2023/04/02 12:35:33;;;;;;;3.72;2.20;;;;;;;7.23;57.76;100295.41;10281062;28;20343;-60
2023/04/02 12:40:34;;;;;;;5.10;2.20;;;;;;;8.02;57.64;100299.84;10259326;28;20038;-60
2023/04/02 12:45:37;;;;;;;3.63;2.00;;;;;;;7.77;57.00;100311.38;10256165;28;20724;-60
2023/04/02 12:50:40;;;;;;;3.35;1.92;;;;;;;7.64;56.81;100316.25;10275953;28;20065;-60
2023/04/02 12:55:47;;;;;;;5.95;2.00;;;;;;;7.86;56.07;100330.06;10275603;28;20058;-60
2023/04/02 13:00:49;;;;;;;3.13;1.83;;;;;;;7.27;56.80;100329.06;10254530;28;20340;-60
2023/04/02 13:05:56;;;;;;;2.95;1.80;;;;;;;7.23;56.99;100340.50;10257587;28;20526;-60
2023/04/02 13:11:00;;;;;;;4.05;2.00;;;;;;;7.26;57.48;100336.94;10260499;28;20295;-60
2023/04/02 13:16:13;;;;;;;2.70;1.60;;;;;;;7.23;55.94;100345.69;10278204;28;20062;-60
2023/04/02 13:21:15;;;;;;;1.80;1.50;;;;;;;7.31;57.53;100346.25;10263400;28;20518;-60
2023/04/02 13:26:20;;;;;;;2.70;1.67;;;;;;;7.27;57.77;100347.28;10261973;28;20332;-60
2023/04/02 13:31:22;;;;;;;2.92;1.60;;;;;;;7.67;57.03;100349.94;10258219;28;20149;-60
2023/04/02 13:36:25;;;;;;;2.85;1.80;;;;;;;7.25;56.54;100367.28;10261265;28;20046;-60
2023/04/02 13:41:29;;;;;;;2.97;1.98;;;;;;;7.54;57.00;100358.31;10258423;28;20050;-60
2023/04/02 13:46:33;;;;;;;3.00;1.80;;;;;;;7.53;56.56;100380.91;10260767;28;20058;-60
2023/04/02 13:51:38;;;;;;;2.55;1.75;;;;;;;7.62;56.14;100384.88;10271369;28;20046;-60
2023/04/02 13:56:40;;;;;;;2.65;1.70;;;;;;;7.31;56.03;100380.06;10258775;28;20046;-60
2023/04/02 14:01:44;;;;;;;3.33;1.77;;;;;;;7.32;55.47;100399.13;10275673;28;20146;-60
2023/04/02 14:06:55;;;;;;;2.70;1.75;;;;;;;7.09;55.79;100393.06;10260044;28;20524;-60
2023/04/02 14:12:13;;;;;;;;;;;;;;;7.01;56.31;100396.84;10275257;28;20071;-60
2023/04/02 14:17:20;;;;;;;3.10;1.88;;;;;;;7.39;55.82;100397.97;10259990;28;19926;-60
2023/04/02 14:22:52;;;;;;;2.92;1.80;;;;;;;7.50;55.47;100412.28;10260326;28;20053;-60
2023/04/02 14:28:02;;;;;;;4.50;2.00;;;;;;;7.22;55.40;100422.06;10268683;28;20484;-60
2023/04/02 14:33:16;;;;;;;3.35;2.03;;;;;;;7.52;55.38;100420.00;10265732;28;20568;-60
2023/04/02 14:38:50;;;;;;;3.88;2.10;;;;;;;7.73;53.64;100429.56;10265113;28;20144;-60
2023/04/02 14:43:57;;;;;;;3.60;2.28;;;;;;;7.02;54.41;100445.38;10265693;28;20051;-59
2023/04/02 14:49:07;;;;;;;3.60;2.13;;;;;;;7.26;53.71;100436.66;10264591;28;20051;-60
2023/04/02 14:54:28;;;;;;;4.25;2.20;;;;;;;7.46;54.39;100448.88;10258590;28;20058;-60
2023/04/02 14:59:38;;;;;;;5.18;2.30;;;;;;;7.28;53.73;100460.00;10258783;28;20049;-60
2023/04/02 15:04:44;;;;;;;4.90;2.35;;;;;;;7.09;53.65;100478.03;10258895;28;20050;-60
2023/04/02 15:09:52;;;;;;;4.05;2.20;;;;;;;6.88;54.22;100476.19;10257377;28;20389;-60
2023/04/02 15:15:01;;;;;;;4.93;2.40;;;;;;;6.82;54.00;100484.22;10256328;28;20058;-60
2023/04/02 15:20:14;;;;;;;5.13;2.10;;;;;;;6.64;53.44;100490.06;10256387;28;20047;-60
2023/04/02 15:25:35;;;;;;;4.25;2.10;;;;;;;6.58;52.99;100508.47;10258145;28;20051;-60
2023/04/02 15:30:41;;;;;;;4.13;2.20;;;;;;;6.49;52.88;100506.22;10245194;28;20527;-60
2023/04/02 15:35:58;;;;;;;4.05;2.38;;;;;;;6.22;53.16;100526.13;10253101;28;20070;-62
2023/04/02 15:41:25;;;;;;;3.78;2.10;;;;;;;6.34;53.81;100521.41;10257309;28;20049;-60
2023/04/02 15:46:49;;;;;;;4.20;1.98;;;;;;;6.21;53.43;100522.66;10253552;28;20135;-60
2023/04/02 15:52:04;;;;;;;4.35;2.10;;;;;;;6.55;53.23;100531.97;10251021;28;20835;-60
2023/04/02 15:57:27;;;;;;;3.78;1.85;;;;;;;6.65;53.34;100538.56;10260310;28;20166;-60
2023/04/02 16:02:57;;;;;;;5.28;2.03;;;;;;;6.23;52.45;100558.97;10260856;28;20565;-60
2023/04/02 16:08:30;;;;;;;5.72;2.08;;;;;;;5.66;52.49;100579.78;10262444;28;20070;-60
2023/04/02 16:13:35;;;;;;;7.85;2.00;;;;;;;5.87;52.87;100592.13;10259823;28;20042;-60
2023/04/02 16:18:54;;;;;;;3.42;1.80;;;;;;;5.72;52.37;100602.09;10262358;28;20421;-60
2023/04/02 16:23:56;;;;;;;4.05;1.88;;;;;;;5.89;52.79;100612.84;10305616;28;20229;-60
2023/04/02 16:29:10;;;;;;;6.07;2.00;;;;;;;6.01;52.59;100615.06;10299588;28;20145;-60
2023/04/02 16:34:35;;;;;;;6.03;2.10;;;;;;;6.03;50.86;100605.50;10267774;28;20047;-60
2023/04/02 16:39:44;;;;;;;4.65;1.95;;;;;;;5.89;50.47;100629.28;10279400;28;20043;-60
2023/04/02 16:45:10;;;;;;;3.60;2.00;;;;;;;5.95;51.22;100629.09;10273551;28;20059;-60
2023/04/02 16:50:29;;;;;;;4.32;1.95;;;;;;;6.09;50.73;100632.13;10266318;28;20058;-60
2023/04/02 16:55:47;;;;;;;6.60;2.67;;;;;;;5.99;51.07;100637.63;10257879;28;20043;-60
2023/04/02 17:00:59;;;;;;;9.52;5.88;;;;;;;5.93;51.26;100661.19;10249806;28;20054;-60
2023/04/02 17:06:08;;;;;;;3.85;1.95;;;;;;;5.94;51.47;100658.53;10258830;28;20049;-60
2023/04/02 17:11:35;;;;;;;4.07;2.28;;;;;;;5.70;50.86;100663.56;10260912;28;20047;-60
2023/04/02 17:16:42;;;;;;;6.35;2.58;;;;;;;5.71;50.82;100673.94;10272540;28;20055;-60
2023/04/02 17:21:47;;;;;;;4.78;2.20;;;;;;;5.80;51.15;100688.41;10257790;28;20055;-60
2023/04/02 17:26:55;;;;;;;5.85;2.10;;;;;;;5.57;50.50;100702.00;10261318;28;20612;-60
2023/04/02 17:31:59;;;;;;;5.07;2.10;;;;;;;5.65;51.51;100694.88;10249971;28;20526;-60
2023/04/02 17:37:32;;;;;;;8.52;2.63;;;;;;;5.50;50.25;100721.22;10255411;28;20074;-60
2023/04/02 17:42:52;;;;;;;4.95;2.38;;;;;;;5.29;50.51;100719.16;10257661;28;20458;-60
2023/04/02 17:48:01;;;;;;;5.65;2.25;;;;;;;5.48;51.16;100721.25;10258338;28;20491;-60
2023/04/02 17:53:30;;;;;;;8.07;2.20;;;;;;;5.32;49.95;100729.47;10258323;28;20534;-59
2023/04/02 17:58:41;;;;;;;5.10;2.33;;;;;;;5.49;50.60;100735.91;10267778;28;20165;-60
2023/04/02 18:03:52;;;;;;;4.13;2.22;;;;;;;5.45;51.31;100746.44;10256627;28;20046;-60
2023/04/02 18:09:27;;;;;;;8.32;2.53;;;;;;;5.34;50.04;100756.22;10257783;28;20049;-60
2023/04/02 18:14:41;;;;;;;4.63;2.30;;;;;;;5.12;50.11;100778.41;10261253;28;20042;-60
2023/04/02 18:19:52;;;;;;;7.10;2.42;;;;;;;5.23;50.75;100787.59;10259368;28;20454;-60
2023/04/02 18:25:02;;;;;;;5.10;2.20;;;;;;;5.42;51.21;100791.47;10264979;28;20043;-60
2023/04/02 18:30:32;;;;;;;5.00;2.83;;;;;;;5.38;51.28;100802.81;10264382;28;20043;-61
2023/04/02 18:36:21;;;;;;;5.95;2.38;;;;;;;5.30;50.37;100807.34;10261255;28;20057;-62
2023/04/02 18:42:04;;;;;;;4.45;2.85;;;;;;;5.33;50.62;100828.00;10261823;28;20055;-62
2023/04/02 18:47:05;;;;;;;4.25;2.30;;;;;;;5.11;51.33;100834.56;10262893;28;20042;-62
2023/04/02 18:52:17;;;;;;;4.72;2.33;;;;;;;4.97;50.10;100828.84;10259318;28;20542;-62
2023/04/02 18:57:30;;;;;;;6.13;2.20;;;;;;;5.06;51.45;100840.75;10250501;28;20055;-61
2023/04/02 19:02:32;;;;;;;4.90;2.58;;;;;;;5.27;51.22;100846.28;10255544;28;20494;-62
2023/04/02 19:07:39;;;;;;;5.35;2.30;;;;;;;5.40;50.97;100854.63;10275829;28;20042;-62
2023/04/02 19:12:41;;;;;;;6.18;2.10;;;;;;;5.12;50.58;100856.19;10251725;28;20470;-62
2023/04/02 19:17:50;;;;;;;5.85;2.38;;;;;;;5.05;49.87;100870.16;10274562;28;20394;-61
2023/04/02 19:22:58;;;;;;;4.47;1.90;;;;;;;5.09;50.45;100879.56;10261958;28;20051;-61
2023/04/02 19:28:12;;;;;;;6.13;2.10;;;;;;;5.14;50.71;100890.72;10264257;28;20097;-61
2023/04/02 19:33:22;;;;;;;5.93;2.40;;;;;;;5.34;50.32;100897.16;10263535;28;20061;-61
2023/04/02 19:38:52;;;;;;;7.68;2.53;;;;;;;4.93;49.72;100898.94;10284773;28;20051;-61
2023/04/02 19:43:54;;;;;;;5.10;1.98;;;;;;;4.97;50.15;100903.16;10258649;28;20440;-61
2023/04/02 19:49:04;;;;;;;5.40;1.90;;;;;;;4.76;50.74;100909.66;10256698;28;20522;-61
2023/04/02 19:54:05;;;;;;;5.15;1.90;;;;;;;4.76;50.01;100911.41;10254001;28;20466;-60
2023/04/02 19:59:10;;;;;;;4.70;1.75;;;;;;;4.77;48.81;100913.97;10253613;28;20570;-60
2023/04/02 20:04:17;;;;;;;4.40;1.80;;;;;;;4.72;49.39;100925.31;10257009;28;20137;-60
2023/04/02 20:09:19;;;;;;;4.43;2.03;;;;;;;4.72;49.13;100925.31;10255632;28;20038;-60
2023/04/02 20:14:21;;;;;;;3.88;2.00;;;;;;;4.74;49.29;100926.16;10252655;28;20051;-60
2023/04/02 20:19:24;;;;;;;4.00;1.80;;;;;;;4.70;50.08;100930.50;10273257;28;20166;-60
2023/04/02 20:24:25;;;;;;;4.95;1.85;;;;;;;4.76;49.70;100938.16;10264297;28;20130;-60
2023/04/02 20:29:29;;;;;;;4.82;1.88;;;;;;;4.86;49.12;100936.25;10258010;28;20058;-60
2023/04/02 20:34:31;;;;;;;4.35;1.73;;;;;;;4.82;49.91;100938.03;10259838;28;20356;-60
2023/04/02 20:39:33;;;;;;;3.13;1.75;;;;;;;4.57;49.09;100955.84;10250564;28;20223;-60
2023/04/02 20:44:36;;;;;;;3.63;1.90;;;;;;;4.51;49.92;100955.94;10255195;28;20043;-60
2023/04/02 20:49:38;;;;;;;3.25;1.75;;;;;;;4.56;49.90;100953.25;10256022;28;20046;-60
2023/04/02 20:54:39;;;;;;;4.60;2.17;;;;;;;4.57;50.10;100961.00;10253489;28;20145;-60
2023/04/02 20:59:41;;;;;;;4.68;1.88;;;;;;;4.52;50.34;100959.38;10273852;28;20045;-60
2023/04/02 21:04:43;;;;;;;4.22;1.90;;;;;;;4.45;51.38;100965.56;10255759;28;20522;-60
2023/04/02 21:09:45;;;;;;;5.40;1.88;;;;;;;4.35;51.33;100980.38;10261265;28;20050;-60
2023/04/02 21:14:48;;;;;;;5.22;2.00;;;;;;;4.37;50.98;100972.63;10256579;28;20051;-60
2023/04/02 21:19:50;;;;;;;5.45;2.03;;;;;;;4.46;52.24;100973.28;10253067;28;20194;-60
2023/04/02 21:24:52;;;;;;;4.90;2.10;;;;;;;4.57;52.12;100986.91;10252370;28;20473;-60
2023/04/02 21:29:53;;;;;;;4.38;2.08;;;;;;;4.67;51.46;100978.09;10258614;28;20039;-60
2023/04/02 21:34:55;;;;;;;4.45;2.28;;;;;;;4.68;51.54;100984.97;10256894;28;20055;-60
2023/04/02 21:39:57;;;;;;;5.78;2.30;;;;;;;4.72;51.59;100981.44;10261259;28;20497;-60
2023/04/02 21:44:59;;;;;;;5.15;2.05;;;;;;;4.74;50.98;100980.56;10258244;28;20058;-60
2023/04/02 21:50:01;;;;;;;4.65;1.98;;;;;;;4.78;50.93;100987.38;10257427;28;20057;-59
2023/04/02 21:55:03;;;;;;;4.47;2.28;;;;;;;4.79;51.56;100978.72;10254886;28;20045;-60
2023/04/02 22:00:08;;;;;;;4.47;2.08;;;;;;;4.85;51.28;100983.78;10257572;28;20414;-60
2023/04/02 22:05:09;;;;;;;4.22;2.17;;;;;;;4.75;51.99;100984.84;10259196;28;20042;-60
2023/04/02 22:10:11;;;;;;;4.40;2.00;;;;;;;4.77;52.51;100988.25;10253111;28;20174;-60
2023/04/02 22:15:13;;;;;;;5.93;2.10;;;;;;;4.79;52.55;100991.66;10251591;28;20491;-60
2023/04/02 22:20:15;;;;;;;9.50;2.10;;;;;;;4.81;51.89;100990.78;10254081;28;20423;-60
2023/04/02 22:25:17;;;;;;;4.13;2.20;;;;;;;4.75;52.00;100990.03;10251611;28;20065;-60
2023/04/02 22:30:18;;;;;;;4.65;2.30;;;;;;;4.72;52.26;100990.09;10252924;28;20218;-60
2023/04/02 22:35:20;;;;;;;7.47;2.28;;;;;;;4.52;52.22;100991.31;10254191;28;20085;-60
2023/04/02 22:40:22;;;;;;;5.28;2.30;;;;;;;4.43;53.20;100988.88;10250595;28;20051;-60
2023/04/02 22:45:24;;;;;;;6.38;2.40;;;;;;;4.50;53.45;100984.44;10254600;28;20138;-60
2023/04/02 22:50:26;;;;;;;8.63;3.72;;;;;;;4.54;53.71;100997.31;10268879;28;20044;-60
2023/04/02 22:55:27;;;;;;;7.28;3.40;;;;;;;4.52;54.31;101001.69;10252121;28;20051;-60
2023/04/02 23:00:29;;;;;;;8.40;3.55;;;;;;;4.43;54.39;100996.66;10252100;28;20581;-60
2023/04/02 23:05:31;;;;;;;6.25;2.67;;;;;;;4.40;55.18;101003.63;10252376;28;20427;-60
2023/04/02 23:10:33;;;;;;;7.68;3.05;;;;;;;4.42;55.14;100997.53;10253091;28;20152;-60
2023/04/02 23:15:35;;;;;;;6.38;2.67;;;;;;;4.43;55.43;100994.06;10256202;28;20042;-60
2023/04/02 23:20:37;;;;;;;5.68;2.70;;;;;;;4.38;55.27;101000.22;10253621;28;21172;-61
2023/04/02 23:25:40;;;;;;;7.63;2.92;;;;;;;4.40;55.76;101007.06;10252473;28;20545;-60
2023/04/02 23:30:43;;;;;;;7.93;2.53;;;;;;;4.42;56.09;101002.72;10252088;28;20043;-60
2023/04/02 23:35:44;;;;;;;6.07;2.38;;;;;;;4.47;55.91;101013.88;10255039;28;20043;-60
2023/04/02 23:40:46;;;;;;;6.35;2.60;;;;;;;4.45;56.54;101018.22;10252508;28;20110;-60
2023/04/02 23:45:49;;;;;;;6.55;3.10;;;;;;;4.39;56.73;101027.84;10248629;28;20042;-60
2023/04/02 23:50:51;;;;;;;5.50;3.15;;;;;;;4.33;56.58;101028.75;10254164;28;21551;-60
2023/04/02 23:55:52;;;;;;;7.55;3.10;;;;;;;4.36;56.87;101031.31;10253048;28;20043;-60
